sensor_id;sensor_type;location;lat;lon;timestamp;temperature;humidity
43227;DHT22;28839;52.404;9.808;2022-09-21T00:05:22;7.40;99.90
43227;DHT22;28839;52.404;9.808;2022-09-21T00:12:16;7.40;99.90
43227;DHT22;28839;52.404;9.808;2022-09-21T00:19:11;7.40;99.90
43227;DHT22;28839;52.404;9.808;2022-09-21T00:26:08;7.30;99.90
43227;DHT22;28839;52.404;9.808;2022-09-21T00:33:03;7.20;99.90
43227;DHT22;28839;52.404;9.808;2022-09-21T00:39:57;7.10;99.90
43227;DHT22;28839;52.404;9.808;2022-09-21T00:46:54;7.10;99.90
43227;DHT22;28839;52.404;9.808;2022-09-21T00:53:52;7.10;99.90
43227;DHT22;28839;52.404;9.808;2022-09-21T01:00:48;7.10;99.90
43227;DHT22;28839;52.404;9.808;2022-09-21T01:07:46;7.00;99.90
43227;DHT22;28839;52.404;9.808;2022-09-21T01:14:59;6.80;99.90
43227;DHT22;28839;52.404;9.808;2022-09-21T01:22:02;6.70;99.90
43227;DHT22;28839;52.404;9.808;2022-09-21T01:29:14;6.60;99.90
43227;DHT22;28839;52.404;9.808;2022-09-21T01:36:13;6.70;99.90
43227;DHT22;28839;52.404;9.808;2022-09-21T01:43:11;6.60;99.90
43227;DHT22;28839;52.404;9.808;2022-09-21T01:50:09;6.50;99.90
43227;DHT22;28839;52.404;9.808;2022-09-21T01:57:08;6.40;99.90
43227;DHT22;28839;52.404;9.808;2022-09-21T02:04:08;6.30;99.90
43227;DHT22;28839;52.404;9.808;2022-09-21T02:11:05;6.20;99.90
43227;DHT22;28839;52.404;9.808;2022-09-21T02:18:04;6.10;99.90
43227;DHT22;28839;52.404;9.808;2022-09-21T02:25:06;6.10;99.90
43227;DHT22;28839;52.404;9.808;2022-09-21T02:32:08;6.10;99.90
43227;DHT22;28839;52.404;9.808;2022-09-21T02:39:06;6.00;99.90
43227;DHT22;28839;52.404;9.808;2022-09-21T02:46:07;6.20;99.90
43227;DHT22;28839;52.404;9.808;2022-09-21T02:53:04;6.00;99.90
43227;DHT22;28839;52.404;9.808;2022-09-21T03:00:00;5.90;99.90
43227;DHT22;28839;52.404;9.808;2022-09-21T03:06:54;6.00;99.90
43227;DHT22;28839;52.404;9.808;2022-09-21T03:13:49;5.80;99.90
43227;DHT22;28839;52.404;9.808;2022-09-21T03:20:44;5.90;99.90
43227;DHT22;28839;52.404;9.808;2022-09-21T03:27:38;5.90;99.90
43227;DHT22;28839;52.404;9.808;2022-09-21T03:34:34;5.80;99.90
43227;DHT22;28839;52.404;9.808;2022-09-21T03:41:28;5.70;99.90
43227;DHT22;28839;52.404;9.808;2022-09-21T03:48:22;5.70;99.90
43227;DHT22;28839;52.404;9.808;2022-09-21T03:55:17;5.70;99.90
43227;DHT22;28839;52.404;9.808;2022-09-21T04:02:11;5.70;99.90
43227;DHT22;28839;52.404;9.808;2022-09-21T04:09:05;5.60;99.90
43227;DHT22;28839;52.404;9.808;2022-09-21T04:16:01;5.60;99.90
43227;DHT22;28839;52.404;9.808;2022-09-21T04:22:55;5.60;99.90
43227;DHT22;28839;52.404;9.808;2022-09-21T04:29:49;5.60;99.90
43227;DHT22;28839;52.404;9.808;2022-09-21T04:36:44;5.60;99.90
43227;DHT22;28839;52.404;9.808;2022-09-21T04:43:41;5.50;99.90
43227;DHT22;28839;52.404;9.808;2022-09-21T04:50:37;5.60;99.90
43227;DHT22;28839;52.404;9.808;2022-09-21T04:57:32;5.50;99.90
43227;DHT22;28839;52.404;9.808;2022-09-21T05:04:27;5.50;99.90
43227;DHT22;28839;52.404;9.808;2022-09-21T05:11:21;5.50;99.90
43227;DHT22;28839;52.404;9.808;2022-09-21T05:18:16;5.50;99.90
43227;DHT22;28839;52.404;9.808;2022-09-21T05:25:10;5.60;99.90
43227;DHT22;28839;52.404;9.808;2022-09-21T05:32:10;5.50;99.90
43227;DHT22;28839;52.404;9.808;2022-09-21T05:39:08;5.50;99.90
43227;DHT22;28839;52.404;9.808;2022-09-21T05:46:05;5.60;99.90
43227;DHT22;28839;52.404;9.808;2022-09-21T05:53:16;5.70;99.90
43227;DHT22;28839;52.404;9.808;2022-09-21T06:00:15;5.90;99.90
43227;DHT22;28839;52.404;9.808;2022-09-21T06:07:10;6.20;99.90
43227;DHT22;28839;52.404;9.808;2022-09-21T06:14:04;6.70;99.90
43227;DHT22;28839;52.404;9.808;2022-09-21T06:20:59;7.90;99.90
43227;DHT22;28839;52.404;9.808;2022-09-21T06:27:53;10.10;99.90
43227;DHT22;28839;52.404;9.808;2022-09-21T06:34:47;11.80;99.90
43227;DHT22;28839;52.404;9.808;2022-09-21T06:41:43;12.40;99.90
43227;DHT22;28839;52.404;9.808;2022-09-21T06:48:37;11.90;99.90
43227;DHT22;28839;52.404;9.808;2022-09-21T06:55:31;11.60;99.90
43227;DHT22;28839;52.404;9.808;2022-09-21T07:02:27;11.30;99.90
43227;DHT22;28839;52.404;9.808;2022-09-21T07:09:21;10.60;99.90
43227;DHT22;28839;52.404;9.808;2022-09-21T07:16:15;10.40;99.90
43227;DHT22;28839;52.404;9.808;2022-09-21T07:23:12;10.10;99.90
43227;DHT22;28839;52.404;9.808;2022-09-21T07:30:08;10.30;99.90
43227;DHT22;28839;52.404;9.808;2022-09-21T07:37:02;10.40;99.90
43227;DHT22;28839;52.404;9.808;2022-09-21T07:43:57;10.50;99.90
43227;DHT22;28839;52.404;9.808;2022-09-21T07:50:51;10.60;99.90
43227;DHT22;28839;52.404;9.808;2022-09-21T07:57:48;10.80;99.90
43227;DHT22;28839;52.404;9.808;2022-09-21T08:05:02;11.10;99.90
43227;DHT22;28839;52.404;9.808;2022-09-21T08:11:56;11.50;99.90
43227;DHT22;28839;52.404;9.808;2022-09-21T08:18:51;11.60;99.90
43227;DHT22;28839;52.404;9.808;2022-09-21T08:25:46;11.80;99.90
43227;DHT22;28839;52.404;9.808;2022-09-21T08:32:40;11.90;99.90
43227;DHT22;28839;52.404;9.808;2022-09-21T08:39:34;12.10;99.90
43227;DHT22;28839;52.404;9.808;2022-09-21T08:46:32;12.30;99.90
43227;DHT22;28839;52.404;9.808;2022-09-21T08:53:31;12.50;99.90
43227;DHT22;28839;52.404;9.808;2022-09-21T09:00:28;12.60;99.90
43227;DHT22;28839;52.404;9.808;2022-09-21T09:07:43;12.70;99.90
43227;DHT22;28839;52.404;9.808;2022-09-21T09:15:01;12.80;99.90
43227;DHT22;28839;52.404;9.808;2022-09-21T09:22:01;13.10;99.90
43227;DHT22;28839;52.404;9.808;2022-09-21T09:29:01;13.30;99.90
43227;DHT22;28839;52.404;9.808;2022-09-21T09:36:00;13.40;99.90
43227;DHT22;28839;52.404;9.808;2022-09-21T09:43:01;13.60;99.90
43227;DHT22;28839;52.404;9.808;2022-09-21T09:50:04;13.80;99.90
43227;DHT22;28839;52.404;9.808;2022-09-21T09:56:59;14.10;99.90
43227;DHT22;28839;52.404;9.808;2022-09-21T10:04:04;15.20;99.90
43227;DHT22;28839;52.404;9.808;2022-09-21T10:11:00;15.70;99.90
43227;DHT22;28839;52.404;9.808;2022-09-21T10:18:05;15.90;99.90
43227;DHT22;28839;52.404;9.808;2022-09-21T10:25:03;15.60;99.90
43227;DHT22;28839;52.404;9.808;2022-09-21T10:32:02;15.80;99.90
43227;DHT22;28839;52.404;9.808;2022-09-21T10:39:20;15.70;99.90
43227;DHT22;28839;52.404;9.808;2022-09-21T10:46:14;15.90;99.90
43227;DHT22;28839;52.404;9.808;2022-09-21T10:53:21;15.80;99.90
43227;DHT22;28839;52.404;9.808;2022-09-21T11:00:27;16.10;99.90
43227;DHT22;28839;52.404;9.808;2022-09-21T11:07:29;16.20;99.90
43227;DHT22;28839;52.404;9.808;2022-09-21T11:14:36;16.20;99.90
43227;DHT22;28839;52.404;9.808;2022-09-21T11:21:38;16.20;99.90
43227;DHT22;28839;52.404;9.808;2022-09-21T11:28:38;16.10;99.90
43227;DHT22;28839;52.404;9.808;2022-09-21T11:35:41;16.10;99.90
43227;DHT22;28839;52.404;9.808;2022-09-21T11:42:54;16.20;99.90
43227;DHT22;28839;52.404;9.808;2022-09-21T11:50:13;16.40;99.90
43227;DHT22;28839;52.404;9.808;2022-09-21T11:57:19;16.30;99.90
43227;DHT22;28839;52.404;9.808;2022-09-21T12:04:35;16.40;99.90
43227;DHT22;28839;52.404;9.808;2022-09-21T12:11:36;16.60;99.90
43227;DHT22;28839;52.404;9.808;2022-09-21T12:18:37;16.40;99.90
43227;DHT22;28839;52.404;9.808;2022-09-21T12:25:37;16.60;99.90
43227;DHT22;28839;52.404;9.808;2022-09-21T12:32:48;16.70;99.90
43227;DHT22;28839;52.404;9.808;2022-09-21T12:39:48;16.80;99.90
43227;DHT22;28839;52.404;9.808;2022-09-21T12:46:46;16.70;99.90
43227;DHT22;28839;52.404;9.808;2022-09-21T12:53:44;16.80;99.90
43227;DHT22;28839;52.404;9.808;2022-09-21T13:00:48;16.80;99.90
43227;DHT22;28839;52.404;9.808;2022-09-21T13:08:05;16.30;99.90
43227;DHT22;28839;52.404;9.808;2022-09-21T13:15:03;16.00;99.90
43227;DHT22;28839;52.404;9.808;2022-09-21T13:22:20;15.90;99.90
43227;DHT22;28839;52.404;9.808;2022-09-21T13:29:37;16.10;99.90
43227;DHT22;28839;52.404;9.808;2022-09-21T13:36:33;16.10;99.90
43227;DHT22;28839;52.404;9.808;2022-09-21T13:44:02;16.40;99.90
43227;DHT22;28839;52.404;9.808;2022-09-21T13:51:06;16.60;99.90
43227;DHT22;28839;52.404;9.808;2022-09-21T13:58:03;16.90;99.90
43227;DHT22;28839;52.404;9.808;2022-09-21T14:05:03;16.40;99.90
43227;DHT22;28839;52.404;9.808;2022-09-21T14:12:01;16.10;99.90
43227;DHT22;28839;52.404;9.808;2022-09-21T14:18:58;16.10;99.90
43227;DHT22;28839;52.404;9.808;2022-09-21T14:25:54;16.00;99.90
43227;DHT22;28839;52.404;9.808;2022-09-21T14:32:52;16.10;99.90
43227;DHT22;28839;52.404;9.808;2022-09-21T14:39:48;16.10;99.90
43227;DHT22;28839;52.404;9.808;2022-09-21T14:46:56;16.10;99.90
43227;DHT22;28839;52.404;9.808;2022-09-21T14:54:11;16.10;99.90
43227;DHT22;28839;52.404;9.808;2022-09-21T15:01:36;16.00;99.90
43227;DHT22;28839;52.404;9.808;2022-09-21T15:08:49;15.60;99.90
43227;DHT22;28839;52.404;9.808;2022-09-21T15:16:18;15.40;99.90
43227;DHT22;28839;52.404;9.808;2022-09-21T15:23:17;15.10;99.90
43227;DHT22;28839;52.404;9.808;2022-09-21T15:30:19;14.80;99.90
43227;DHT22;28839;52.404;9.808;2022-09-21T15:37:15;14.50;99.90
43227;DHT22;28839;52.404;9.808;2022-09-21T15:44:14;14.30;99.90
43227;DHT22;28839;52.404;9.808;2022-09-21T15:51:13;14.10;99.90
43227;DHT22;28839;52.404;9.808;2022-09-21T15:58:16;14.10;99.90
43227;DHT22;28839;52.404;9.808;2022-09-21T16:05:13;13.80;99.90
43227;DHT22;28839;52.404;9.808;2022-09-21T16:12:41;13.70;99.90
43227;DHT22;28839;52.404;9.808;2022-09-21T16:19:39;13.80;99.90
43227;DHT22;28839;52.404;9.808;2022-09-21T16:26:36;13.80;99.90
43227;DHT22;28839;52.404;9.808;2022-09-21T16:33:39;13.80;99.90
43227;DHT22;28839;52.404;9.808;2022-09-21T16:40:34;13.80;99.90
43227;DHT22;28839;52.404;9.808;2022-09-21T16:47:28;13.70;99.90
43227;DHT22;28839;52.404;9.808;2022-09-21T16:54:23;13.60;99.90
43227;DHT22;28839;52.404;9.808;2022-09-21T17:01:18;13.40;99.90
43227;DHT22;28839;52.404;9.808;2022-09-21T17:08:12;13.00;99.90
43227;DHT22;28839;52.404;9.808;2022-09-21T17:15:11;12.80;99.90
43227;DHT22;28839;52.404;9.808;2022-09-21T17:22:06;12.70;99.90
43227;DHT22;28839;52.404;9.808;2022-09-21T17:29:00;12.40;99.90
43227;DHT22;28839;52.404;9.808;2022-09-21T17:35:56;12.20;99.90
43227;DHT22;28839;52.404;9.808;2022-09-21T17:42:50;11.90;99.90
43227;DHT22;28839;52.404;9.808;2022-09-21T17:49:46;11.70;99.90
43227;DHT22;28839;52.404;9.808;2022-09-21T17:56:46;11.30;99.90
43227;DHT22;28839;52.404;9.808;2022-09-21T18:03:42;11.20;99.90
43227;DHT22;28839;52.404;9.808;2022-09-21T18:10:36;11.00;99.90
43227;DHT22;28839;52.404;9.808;2022-09-21T18:17:51;10.80;99.90
43227;DHT22;28839;52.404;9.808;2022-09-21T18:24:50;10.80;99.90
43227;DHT22;28839;52.404;9.808;2022-09-21T18:31:47;10.60;99.90
43227;DHT22;28839;52.404;9.808;2022-09-21T18:38:52;10.40;99.90
43227;DHT22;28839;52.404;9.808;2022-09-21T18:45:54;10.20;99.90
43227;DHT22;28839;52.404;9.808;2022-09-21T18:52:56;10.20;99.90
43227;DHT22;28839;52.404;9.808;2022-09-21T18:59:53;10.00;99.90
43227;DHT22;28839;52.404;9.808;2022-09-21T19:06:52;9.90;99.90
43227;DHT22;28839;52.404;9.808;2022-09-21T19:13:54;9.70;99.90
43227;DHT22;28839;52.404;9.808;2022-09-21T19:21:07;9.70;99.90
43227;DHT22;28839;52.404;9.808;2022-09-21T19:28:14;9.60;99.90
43227;DHT22;28839;52.404;9.808;2022-09-21T19:35:18;9.40;99.90
43227;DHT22;28839;52.404;9.808;2022-09-21T19:42:19;9.20;99.90
43227;DHT22;28839;52.404;9.808;2022-09-21T19:49:18;9.10;99.90
43227;DHT22;28839;52.404;9.808;2022-09-21T19:56:14;9.10;99.90
43227;DHT22;28839;52.404;9.808;2022-09-21T20:03:32;9.10;99.90
43227;DHT22;28839;52.404;9.808;2022-09-21T20:10:44;8.80;99.90
43227;DHT22;28839;52.404;9.808;2022-09-21T20:17:47;8.70;99.90
43227;DHT22;28839;52.404;9.808;2022-09-21T20:24:52;8.70;99.90
43227;DHT22;28839;52.404;9.808;2022-09-21T20:31:51;8.70;99.90
43227;DHT22;28839;52.404;9.808;2022-09-21T20:38:47;8.60;99.90
43227;DHT22;28839;52.404;9.808;2022-09-21T20:45:42;8.50;99.90
43227;DHT22;28839;52.404;9.808;2022-09-21T20:52:42;8.50;99.90
43227;DHT22;28839;52.404;9.808;2022-09-21T20:59:36;8.30;99.90
43227;DHT22;28839;52.404;9.808;2022-09-21T21:06:33;8.10;99.90
43227;DHT22;28839;52.404;9.808;2022-09-21T21:13:29;8.20;99.90
43227;DHT22;28839;52.404;9.808;2022-09-21T21:20:23;8.30;99.90
43227;DHT22;28839;52.404;9.808;2022-09-21T21:27:23;8.10;99.90
43227;DHT22;28839;52.404;9.808;2022-09-21T21:34:17;7.90;99.90
43227;DHT22;28839;52.404;9.808;2022-09-21T21:41:11;7.90;99.90
43227;DHT22;28839;52.404;9.808;2022-09-21T22:15:49;7.90;99.90
43227;DHT22;28839;52.404;9.808;2022-09-21T22:22:44;7.50;99.90
43227;DHT22;28839;52.404;9.808;2022-09-21T22:29:39;7.50;99.90
43227;DHT22;28839;52.404;9.808;2022-09-21T22:36:34;7.40;99.90
43227;DHT22;28839;52.404;9.808;2022-09-21T22:43:28;7.20;99.90
43227;DHT22;28839;52.404;9.808;2022-09-21T22:50:24;7.30;99.90
43227;DHT22;28839;52.404;9.808;2022-09-21T22:57:17;7.20;99.90
43227;DHT22;28839;52.404;9.808;2022-09-21T23:04:12;7.10;99.90
43227;DHT22;28839;52.404;9.808;2022-09-21T23:11:09;7.10;99.90
43227;DHT22;28839;52.404;9.808;2022-09-21T23:18:04;7.00;99.90
43227;DHT22;28839;52.404;9.808;2022-09-21T23:24:57;7.00;99.90
43227;DHT22;28839;52.404;9.808;2022-09-21T23:31:52;7.00;99.90
43227;DHT22;28839;52.404;9.808;2022-09-21T23:38:47;6.80;99.90
43227;DHT22;28839;52.404;9.808;2022-09-21T23:45:41;6.90;99.90
43227;DHT22;28839;52.404;9.808;2022-09-21T23:52:36;6.80;99.90
43227;DHT22;28839;52.404;9.808;2022-09-21T23:59:30;6.70;99.90
